createdAt,value
2018-11-25T00:00:27.676Z,97.96
2018-11-25T00:01:27.734Z,97.96
2018-11-25T00:02:27.663Z,97.86
2018-11-25T00:03:27.664Z,97.60
2018-11-25T00:04:27.644Z,97.24
2018-11-25T00:05:27.638Z,97.86
2018-11-25T00:06:27.642Z,97.75
2018-11-25T00:07:34.678Z,97.71
2018-11-25T00:08:28.593Z,97.13
2018-11-25T00:09:27.596Z,97.55
2018-11-25T00:10:27.570Z,97.24
2018-11-25T00:11:27.567Z,97.50
2018-11-25T00:12:27.548Z,97.44
2018-11-25T00:13:27.592Z,97.65
2018-11-25T00:14:27.528Z,96.92
2018-11-25T00:15:27.523Z,97.75
2018-11-25T00:16:27.509Z,97.86
2018-11-25T00:17:27.497Z,97.75
2018-11-25T00:18:27.495Z,97.55
2018-11-25T00:19:27.504Z,97.55
2018-11-25T00:20:27.470Z,97.55
2018-11-25T00:21:27.451Z,97.28
2018-11-25T00:22:27.437Z,97.65
2018-11-25T00:23:27.435Z,98.07
2018-11-25T00:24:27.430Z,98.11
2018-11-25T00:25:27.459Z,97.96
2018-11-25T00:26:27.404Z,97.90
2018-11-25T00:27:27.390Z,97.69
2018-11-25T00:28:27.375Z,97.86
2018-11-25T00:29:27.364Z,98.00
2018-11-25T00:30:27.355Z,98.11
2018-11-25T00:31:27.408Z,98.11
2018-11-25T00:32:27.341Z,98.11
2018-11-25T00:33:27.323Z,97.80
2018-11-25T00:34:27.319Z,98.00
2018-11-25T00:35:27.301Z,97.90
2018-11-25T00:36:27.298Z,98.11
2018-11-25T00:37:27.313Z,98.00
2018-11-25T00:38:27.271Z,97.90
2018-11-25T00:39:27.271Z,98.00
2018-11-25T00:40:27.252Z,98.36
2018-11-25T00:41:27.238Z,98.16
2018-11-25T00:42:27.224Z,98.16
2018-11-25T00:43:27.257Z,98.05
2018-11-25T00:44:27.210Z,98.16
2018-11-25T00:45:27.219Z,98.16
2018-11-25T00:46:27.183Z,98.30
2018-11-25T00:47:27.184Z,98.30
2018-11-25T00:48:27.161Z,98.51
2018-11-25T00:49:27.203Z,98.20
2018-11-25T00:50:27.146Z,98.30
2018-11-25T00:51:27.132Z,98.41
2018-11-25T00:52:27.141Z,98.61
2018-11-25T00:53:27.104Z,98.30
2018-11-25T00:54:27.098Z,98.61
2018-11-25T00:55:27.134Z,99.03
2018-11-25T00:56:27.074Z,98.93
2018-11-25T00:57:27.059Z,98.82
2018-11-25T00:58:27.047Z,98.93
2018-11-25T00:59:27.071Z,98.51
2018-11-25T01:00:27.033Z,98.20
2018-11-25T01:01:27.046Z,98.35
2018-11-25T01:02:27.009Z,97.41
2018-11-25T01:03:26.997Z,97.83
2018-11-25T01:04:26.983Z,97.83
2018-11-25T01:05:26.989Z,97.72
2018-11-25T01:06:26.968Z,97.45
2018-11-25T01:07:27.152Z,97.67
2018-11-25T01:08:26.939Z,98.19
2018-11-25T01:09:26.932Z,98.08
2018-11-25T01:10:26.919Z,98.29
2018-11-25T01:11:26.912Z,98.39
2018-11-25T01:12:26.911Z,98.50
2018-11-25T01:13:26.936Z,98.39
2018-11-25T01:14:26.884Z,98.60
2018-11-25T01:15:26.865Z,98.50
2018-11-25T01:16:26.859Z,98.96
2018-11-25T01:17:26.842Z,98.71
2018-11-25T01:18:26.837Z,99.06
2018-11-25T01:19:26.892Z,98.96
2018-11-25T01:20:26.821Z,98.54
2018-11-25T01:21:26.813Z,99.16
2018-11-25T01:22:26.793Z,99.37
2018-11-25T01:23:26.779Z,99.68
2018-11-25T01:24:26.778Z,99.37
2018-11-25T01:25:26.803Z,99.52
2018-11-25T01:26:26.764Z,99.37
2018-11-25T01:27:26.744Z,99.32
2018-11-25T01:28:26.726Z,99.42
2018-11-25T01:29:26.720Z,99.99
2018-11-25T01:30:26.707Z,99.99
2018-11-25T01:31:26.742Z,99.99
2018-11-25T01:32:26.694Z,99.99
2018-11-25T01:33:26.676Z,99.99
2018-11-25T01:34:26.667Z,99.99
2018-11-25T01:35:26.652Z,99.99
2018-11-25T01:36:26.644Z,99.99
2018-11-25T01:37:26.654Z,99.99
2018-11-25T01:38:26.614Z,99.99
2018-11-25T01:39:26.623Z,99.99
2018-11-25T01:40:26.598Z,99.99
2018-11-25T01:41:26.587Z,99.99
2018-11-25T01:42:26.573Z,99.99
2018-11-25T01:43:26.619Z,99.99
2018-11-25T01:44:26.556Z,99.99
2018-11-25T01:45:26.549Z,99.99
2018-11-25T01:46:26.540Z,99.99
2018-11-25T01:47:26.525Z,99.99
2018-11-25T01:48:26.509Z,99.99
2018-11-25T01:49:26.578Z,99.99
2018-11-25T01:50:26.484Z,99.99
2018-11-25T01:51:26.478Z,99.99
2018-11-25T01:52:26.463Z,99.99
2018-11-25T01:53:26.453Z,99.99
2018-11-25T01:54:26.456Z,99.99
2018-11-25T01:55:26.549Z,99.99
2018-11-25T01:56:26.420Z,99.99
2018-11-25T01:57:26.418Z,99.99
2018-11-25T01:58:26.397Z,99.99
2018-11-25T01:59:26.387Z,99.99
2018-11-25T02:00:26.399Z,99.99
2018-11-25T02:01:26.480Z,99.99
2018-11-25T02:02:26.356Z,99.99
2018-11-25T02:03:26.349Z,99.99
2018-11-25T02:04:26.334Z,99.99
2018-11-25T02:05:26.326Z,99.99
2018-11-25T02:06:26.333Z,99.99
2018-11-25T02:07:26.337Z,99.99
2018-11-25T02:08:26.294Z,99.99
2018-11-25T02:09:26.276Z,99.99
2018-11-25T02:10:26.272Z,99.99
2018-11-25T02:11:26.259Z,99.99
2018-11-25T02:12:26.268Z,99.99
2018-11-25T02:13:26.280Z,99.99
2018-11-25T02:14:26.232Z,99.99
2018-11-25T02:15:26.223Z,99.99
2018-11-25T02:16:26.207Z,99.99
2018-11-25T02:17:26.199Z,99.99
2018-11-25T02:18:26.184Z,99.99
2018-11-25T02:19:26.464Z,99.99
2018-11-25T02:20:26.158Z,99.99
2018-11-25T02:21:26.152Z,99.99
2018-11-25T02:22:26.146Z,99.99
2018-11-25T02:23:26.135Z,99.99
2018-11-25T02:24:26.121Z,99.99
2018-11-25T02:25:26.305Z,99.99
2018-11-25T02:26:26.100Z,99.99
2018-11-25T02:27:26.095Z,99.99
2018-11-25T02:28:26.082Z,99.99
2018-11-25T02:29:26.071Z,99.99
2018-11-25T02:30:26.052Z,99.99
2018-11-25T02:31:26.082Z,99.99
2018-11-25T02:32:26.031Z,99.99
2018-11-25T02:33:26.016Z,99.99
2018-11-25T02:34:26.012Z,99.99
2018-11-25T02:35:26.018Z,99.99
2018-11-25T02:36:26.000Z,99.99
2018-11-25T02:37:26.022Z,99.99
2018-11-25T02:38:25.967Z,99.99
2018-11-25T02:39:25.972Z,99.99
2018-11-25T02:40:25.945Z,99.99
2018-11-25T02:41:25.942Z,99.99
2018-11-25T02:42:25.922Z,99.99
2018-11-25T02:43:25.969Z,99.99
2018-11-25T02:44:25.906Z,99.99
2018-11-25T02:45:25.889Z,99.99
2018-11-25T02:46:25.879Z,99.99
2018-11-25T02:47:25.867Z,99.99
2018-11-25T02:48:25.859Z,99.99
2018-11-25T02:49:25.895Z,99.99
2018-11-25T02:50:25.854Z,99.99
2018-11-25T02:51:25.828Z,99.99
2018-11-25T02:52:25.827Z,99.99
2018-11-25T02:53:25.801Z,99.99
2018-11-25T02:54:25.801Z,99.99
2018-11-25T02:55:25.973Z,99.99
2018-11-25T02:56:25.784Z,99.99
2018-11-25T02:57:25.786Z,99.99
2018-11-25T02:58:25.746Z,99.99
2018-11-25T02:59:25.746Z,99.99
2018-11-25T03:00:25.737Z,99.99
2018-11-25T03:01:25.766Z,99.99
2018-11-25T03:02:25.716Z,99.99
2018-11-25T03:03:25.696Z,99.99
2018-11-25T03:04:25.690Z,99.99
2018-11-25T03:05:25.691Z,99.99
2018-11-25T03:06:25.667Z,99.99
2018-11-25T03:07:25.684Z,99.99
2018-11-25T03:08:25.664Z,99.99
2018-11-25T03:09:25.631Z,99.99
2018-11-25T03:10:25.626Z,99.99
2018-11-25T03:11:25.611Z,99.99
2018-11-25T03:12:25.603Z,99.99
2018-11-25T03:13:25.644Z,99.99
2018-11-25T03:14:25.585Z,99.99
2018-11-25T03:15:25.560Z,99.99
2018-11-25T03:16:25.553Z,99.99
2018-11-25T03:17:25.562Z,99.99
2018-11-25T03:18:25.539Z,99.99
2018-11-25T03:19:25.557Z,99.99
2018-11-25T03:20:25.530Z,99.99
2018-11-25T03:21:25.510Z,99.99
2018-11-25T03:22:25.492Z,99.99
2018-11-25T03:23:25.476Z,99.99
2018-11-25T03:24:25.462Z,99.99
2018-11-25T03:25:25.527Z,99.99
2018-11-25T03:26:25.452Z,99.99
2018-11-25T03:27:25.436Z,99.99
2018-11-25T03:28:25.420Z,99.99
2018-11-25T03:29:25.418Z,99.99
2018-11-25T03:30:25.458Z,99.99
2018-11-25T03:31:25.433Z,99.99
2018-11-25T03:32:25.382Z,99.99
2018-11-25T03:33:25.372Z,99.99
2018-11-25T03:34:25.357Z,99.99
2018-11-25T03:35:25.355Z,99.99
2018-11-25T03:36:25.337Z,99.99
2018-11-25T03:37:25.376Z,99.99
2018-11-25T03:38:25.332Z,99.99
2018-11-25T03:39:25.305Z,99.99
2018-11-25T03:40:25.362Z,99.99
2018-11-25T03:41:25.283Z,99.99
2018-11-25T03:42:25.275Z,99.99
2018-11-25T03:43:25.303Z,99.99
2018-11-25T03:44:25.255Z,99.99
2018-11-25T03:45:25.235Z,99.99
2018-11-25T03:46:25.226Z,99.99
2018-11-25T03:47:25.229Z,99.99
2018-11-25T03:48:25.215Z,99.99
2018-11-25T03:49:25.242Z,99.99
2018-11-25T03:50:25.189Z,99.99
2018-11-25T03:51:25.176Z,99.99
2018-11-25T03:52:25.159Z,99.99
2018-11-25T03:53:25.151Z,99.99
2018-11-25T03:54:25.161Z,99.99
2018-11-25T03:55:25.169Z,99.99
2018-11-25T03:56:25.119Z,99.99
2018-11-25T03:57:25.106Z,99.99
2018-11-25T03:58:25.095Z,99.99
2018-11-25T03:59:25.097Z,99.99
2018-11-25T04:00:25.079Z,99.99
2018-11-25T04:01:25.095Z,99.99
2018-11-25T04:02:25.069Z,99.99
2018-11-25T04:03:25.043Z,99.99
2018-11-25T04:04:25.037Z,99.99
2018-11-25T04:05:25.014Z,99.99
2018-11-25T04:06:25.011Z,99.99
2018-11-25T04:07:25.082Z,99.99
2018-11-25T04:08:25.010Z,99.99
2018-11-25T04:09:24.976Z,99.99
2018-11-25T04:10:24.960Z,99.99
2018-11-25T04:11:24.961Z,99.99
2018-11-25T04:12:24.940Z,99.99
2018-11-25T04:13:24.961Z,99.99
2018-11-25T04:14:24.923Z,99.99
2018-11-25T04:15:24.920Z,99.99
2018-11-25T04:16:24.900Z,99.99
2018-11-25T04:17:24.892Z,99.99
2018-11-25T04:18:24.877Z,99.99
2018-11-25T04:19:24.914Z,99.99
2018-11-25T04:20:24.857Z,99.99
2018-11-25T04:21:24.867Z,99.99
2018-11-25T04:22:24.836Z,99.99
2018-11-25T04:23:24.826Z,99.99
2018-11-25T04:24:24.812Z,99.99
2018-11-25T04:25:24.844Z,99.99
2018-11-25T04:26:24.794Z,99.99
2018-11-25T04:27:24.783Z,99.99
2018-11-25T04:28:24.786Z,99.99
2018-11-25T04:29:24.759Z,99.99
2018-11-25T04:30:24.758Z,99.99
2018-11-25T04:31:24.792Z,99.99
2018-11-25T04:32:24.747Z,99.99
2018-11-25T04:33:24.711Z,99.99
2018-11-25T04:34:24.701Z,99.99
2018-11-25T04:35:24.720Z,99.99
2018-11-25T04:36:24.685Z,99.99
2018-11-25T04:37:24.718Z,99.99
2018-11-25T04:38:24.680Z,99.99
2018-11-25T04:39:24.652Z,99.99
2018-11-25T04:40:24.640Z,99.99
2018-11-25T04:41:24.632Z,99.99
2018-11-25T04:42:24.613Z,99.99
2018-11-25T04:43:24.646Z,99.99
2018-11-25T04:44:24.594Z,99.99
2018-11-25T04:45:24.604Z,99.99
2018-11-25T04:46:24.579Z,99.99
2018-11-25T04:47:24.567Z,99.99
2018-11-25T04:48:24.556Z,99.99
2018-11-25T04:49:24.597Z,99.99
2018-11-25T04:50:24.527Z,99.99
2018-11-25T04:51:24.519Z,99.99
2018-11-25T04:52:24.526Z,99.99
2018-11-25T04:53:24.499Z,99.99
2018-11-25T04:54:24.493Z,99.99
2018-11-25T04:55:24.661Z,99.99
2018-11-25T04:56:24.469Z,99.99
2018-11-25T04:57:24.450Z,99.99
2018-11-25T04:58:24.439Z,99.99
2018-11-25T04:59:24.432Z,99.99
2018-11-25T05:00:24.424Z,99.99
2018-11-25T05:01:24.469Z,99.99
2018-11-25T05:02:24.398Z,99.99
2018-11-25T05:03:24.386Z,99.99
2018-11-25T05:04:24.378Z,99.99
2018-11-25T05:05:24.363Z,99.99
2018-11-25T05:06:24.359Z,99.99
2018-11-25T05:07:24.396Z,99.99
2018-11-25T05:08:24.352Z,99.99
2018-11-25T05:09:24.325Z,99.99
2018-11-25T05:10:24.321Z,99.99
2018-11-25T05:11:24.304Z,99.99
2018-11-25T05:12:24.287Z,99.99
2018-11-25T05:13:24.329Z,99.99
2018-11-25T05:14:24.267Z,99.99
2018-11-25T05:15:24.277Z,99.99
2018-11-25T05:16:24.246Z,99.99
2018-11-25T05:17:24.239Z,99.99
2018-11-25T05:18:24.223Z,99.99
2018-11-25T05:19:24.251Z,99.99
2018-11-25T05:20:24.204Z,99.99
2018-11-25T05:21:24.200Z,99.99
2018-11-25T05:22:24.199Z,99.99
2018-11-25T05:23:24.173Z,99.99
2018-11-25T05:24:24.167Z,99.99
2018-11-25T05:25:24.185Z,99.99
2018-11-25T05:26:24.136Z,99.99
2018-11-25T05:27:24.126Z,99.99
2018-11-25T05:28:24.138Z,99.99
2018-11-25T05:29:24.104Z,99.99
2018-11-25T05:30:24.091Z,99.99
2018-11-25T05:31:24.138Z,99.99
2018-11-25T05:32:24.073Z,99.99
2018-11-25T05:33:24.062Z,99.99
2018-11-25T05:34:24.065Z,99.99
2018-11-25T05:35:24.044Z,99.99
2018-11-25T05:36:24.042Z,99.99
2018-11-25T05:37:24.065Z,99.99
2018-11-25T05:38:24.009Z,99.99
2018-11-25T05:39:23.999Z,99.99
2018-11-25T05:40:23.997Z,99.99
2018-11-25T05:41:23.973Z,99.99
2018-11-25T05:42:23.959Z,99.99
2018-11-25T05:43:24.144Z,99.99
2018-11-25T05:44:23.942Z,99.99
2018-11-25T05:45:23.934Z,99.99
2018-11-25T05:46:23.922Z,99.99
2018-11-25T05:47:23.910Z,99.99
2018-11-25T05:48:23.901Z,99.99
2018-11-25T05:49:23.935Z,99.99
2018-11-25T05:50:24.973Z,99.99
2018-11-25T05:51:23.864Z,99.99
2018-11-25T05:52:23.851Z,99.99
2018-11-25T05:53:23.841Z,99.99
2018-11-25T05:54:23.832Z,99.99
2018-11-25T05:55:23.853Z,99.99
2018-11-25T05:56:23.829Z,99.99
2018-11-25T05:57:23.805Z,99.99
2018-11-25T05:58:23.797Z,99.99
2018-11-25T05:59:23.783Z,99.99
2018-11-25T06:00:23.768Z,99.99
2018-11-25T06:01:23.819Z,99.99
2018-11-25T06:02:23.761Z,99.99
2018-11-25T06:03:23.733Z,99.99
2018-11-25T06:04:23.731Z,99.99
2018-11-25T06:05:23.712Z,99.99
2018-11-25T06:06:23.703Z,99.99
2018-11-25T06:07:23.735Z,99.99
2018-11-25T06:08:23.678Z,99.99
2018-11-25T06:09:23.668Z,99.99
2018-11-25T06:10:23.669Z,99.99
2018-11-25T06:11:23.646Z,99.99
2018-11-25T06:12:23.633Z,99.99
2018-11-25T06:13:23.665Z,99.99
2018-11-25T06:14:23.615Z,99.99
2018-11-25T06:15:23.599Z,99.99
2018-11-25T06:16:23.605Z,99.99
2018-11-25T06:17:23.585Z,99.99
2018-11-25T06:18:23.567Z,99.99
2018-11-25T06:19:23.598Z,99.99
2018-11-25T06:20:23.545Z,99.99
2018-11-25T06:21:23.539Z,99.99
2018-11-25T06:22:23.540Z,99.99
2018-11-25T06:23:23.514Z,99.99
2018-11-25T06:24:23.504Z,99.99
2018-11-25T06:25:23.543Z,99.99
2018-11-25T06:26:23.482Z,99.99
2018-11-25T06:27:23.468Z,99.99
2018-11-25T06:28:23.469Z,99.99
2018-11-25T06:29:23.452Z,99.99
2018-11-25T06:30:23.447Z,99.99
2018-11-25T06:31:23.464Z,99.99
2018-11-25T06:32:23.426Z,99.99
2018-11-25T06:33:23.426Z,99.99
2018-11-25T06:34:23.394Z,99.99
2018-11-25T06:35:23.425Z,99.99
2018-11-25T06:36:23.370Z,99.99
2018-11-25T06:37:23.418Z,99.99
2018-11-25T06:38:24.422Z,99.99
2018-11-25T06:39:23.345Z,99.99
2018-11-25T06:40:23.332Z,99.99
2018-11-25T06:41:23.326Z,99.99
2018-11-25T06:42:23.336Z,99.99
2018-11-25T06:43:23.328Z,99.99
2018-11-25T06:44:23.287Z,99.99
2018-11-25T06:45:23.296Z,99.99
2018-11-25T06:46:23.267Z,99.99
2018-11-25T06:47:23.255Z,99.99
2018-11-25T06:48:23.265Z,99.99
2018-11-25T06:49:23.281Z,99.99
2018-11-25T06:50:23.219Z,99.99
2018-11-25T06:51:23.213Z,99.99
2018-11-25T06:52:23.202Z,99.99
2018-11-25T06:53:23.225Z,99.99
2018-11-25T06:54:23.181Z,99.99
2018-11-25T06:55:23.218Z,99.99
2018-11-25T06:56:27.345Z,99.99
2018-11-25T06:57:23.142Z,99.99
2018-11-25T06:58:23.131Z,99.99
2018-11-25T06:59:23.147Z,99.99
2018-11-25T07:00:23.110Z,99.99
2018-11-25T07:01:23.145Z,99.99
2018-11-25T07:02:23.098Z,99.99
2018-11-25T07:03:23.091Z,99.99
2018-11-25T07:04:23.066Z,99.99
2018-11-25T07:05:23.058Z,99.99
2018-11-25T07:06:23.093Z,99.99
2018-11-25T07:07:23.089Z,99.99
2018-11-25T07:08:23.031Z,99.99
2018-11-25T07:09:23.029Z,99.99
2018-11-25T07:10:23.023Z,99.99
2018-11-25T07:11:22.998Z,99.99
2018-11-25T07:12:22.991Z,99.99
2018-11-25T07:13:23.010Z,99.99
2018-11-25T07:14:22.961Z,99.99
2018-11-25T07:15:22.952Z,99.99
2018-11-25T07:16:22.959Z,99.99
2018-11-25T07:17:22.933Z,99.99
2018-11-25T07:18:22.917Z,99.99
2018-11-25T07:19:22.963Z,99.99
2018-11-25T07:20:22.897Z,99.99
2018-11-25T07:21:22.885Z,99.99
2018-11-25T07:22:22.880Z,99.99
2018-11-25T07:23:22.873Z,99.99
2018-11-25T07:24:22.851Z,99.99
2018-11-25T07:25:22.873Z,99.99
2018-11-25T07:26:22.832Z,99.99
2018-11-25T07:27:22.818Z,99.99
2018-11-25T07:28:22.824Z,99.99
2018-11-25T07:29:22.812Z,99.99
2018-11-25T07:30:22.803Z,99.99
2018-11-25T07:31:22.966Z,99.99
2018-11-25T07:32:22.766Z,99.99
2018-11-25T07:33:22.756Z,99.99
2018-11-25T07:34:22.740Z,99.99
2018-11-25T07:35:22.766Z,99.99
2018-11-25T07:36:22.722Z,99.99
2018-11-25T07:37:22.764Z,99.99
2018-11-25T07:38:22.708Z,99.99
2018-11-25T07:39:22.689Z,99.99
2018-11-25T07:40:22.688Z,99.99
2018-11-25T07:41:22.669Z,99.99
2018-11-25T07:42:22.657Z,99.99
2018-11-25T07:43:22.713Z,99.99
2018-11-25T07:44:22.639Z,99.99
2018-11-25T07:45:29.679Z,99.99
2018-11-25T07:46:23.614Z,99.99
2018-11-25T07:47:22.604Z,99.99
2018-11-25T07:48:22.591Z,99.99
2018-11-25T07:49:22.662Z,99.99
2018-11-25T07:50:22.597Z,99.99
2018-11-25T07:51:22.561Z,99.99
2018-11-25T07:52:22.563Z,99.99
2018-11-25T07:53:22.538Z,99.99
2018-11-25T07:54:22.538Z,99.99
2018-11-25T07:55:22.559Z,99.99
2018-11-25T07:56:22.527Z,99.99
2018-11-25T07:57:22.494Z,99.99
2018-11-25T07:58:22.488Z,99.99
2018-11-25T07:59:22.481Z,99.99
2018-11-25T08:00:22.465Z,99.99
2018-11-25T08:01:22.492Z,99.99
2018-11-25T08:02:22.441Z,99.99
2018-11-25T08:03:22.434Z,99.99
2018-11-25T08:04:22.417Z,99.99
2018-11-25T08:05:22.413Z,99.99
2018-11-25T08:06:22.401Z,99.99
2018-11-25T08:07:22.431Z,99.99
2018-11-25T08:08:22.377Z,99.99
2018-11-25T08:09:22.364Z,99.99
2018-11-25T08:10:22.364Z,99.99
2018-11-25T08:11:22.344Z,99.99
2018-11-25T08:12:22.328Z,99.99
2018-11-25T08:13:22.370Z,99.99
2018-11-25T08:14:22.352Z,99.99
2018-11-25T08:15:22.299Z,99.99
2018-11-25T08:16:22.353Z,99.99
2018-11-25T08:17:22.287Z,99.99
2018-11-25T08:18:22.272Z,99.99
2018-11-25T08:19:22.304Z,99.99
2018-11-25T08:20:22.243Z,99.99
2018-11-25T08:21:22.241Z,99.99
2018-11-25T08:22:22.222Z,99.99
2018-11-25T08:23:22.248Z,99.99
2018-11-25T08:24:22.203Z,99.99
2018-11-25T08:25:22.250Z,99.99
2018-11-25T08:26:22.193Z,99.99
2018-11-25T08:27:22.174Z,99.99
2018-11-25T08:28:22.170Z,99.99
2018-11-25T08:29:22.149Z,99.99
2018-11-25T08:30:22.136Z,99.99
2018-11-25T08:31:22.213Z,99.99
2018-11-25T08:32:22.123Z,99.99
2018-11-25T08:33:22.107Z,99.99
2018-11-25T08:34:22.107Z,99.99
2018-11-25T08:35:22.081Z,99.99
2018-11-25T08:36:22.084Z,99.99
2018-11-25T08:37:22.118Z,99.99
2018-11-25T08:38:22.050Z,99.99
2018-11-25T08:39:22.044Z,99.99
2018-11-25T08:40:22.032Z,99.99
2018-11-25T08:41:22.026Z,99.99
2018-11-25T08:42:22.010Z,99.99
2018-11-25T08:43:22.046Z,99.99
2018-11-25T08:44:22.007Z,99.99
2018-11-25T08:45:21.983Z,99.99
2018-11-25T08:46:21.967Z,99.99
2018-11-25T08:47:21.963Z,99.99
2018-11-25T08:48:21.954Z,99.99
2018-11-25T08:49:21.981Z,99.99
2018-11-25T08:50:21.924Z,99.99
2018-11-25T08:51:21.908Z,99.99
2018-11-25T08:52:21.916Z,99.99
2018-11-25T08:53:21.892Z,99.99
2018-11-25T08:54:21.888Z,99.99
2018-11-25T08:55:21.916Z,99.99
2018-11-25T08:56:21.854Z,99.99
2018-11-25T08:57:21.843Z,99.99
2018-11-25T08:58:21.840Z,99.99
2018-11-25T08:59:21.827Z,99.99
2018-11-25T09:00:21.811Z,99.99
2018-11-25T09:01:21.853Z,99.99
2018-11-25T09:02:21.804Z,99.99
2018-11-25T09:03:21.781Z,99.99
2018-11-25T09:04:21.772Z,99.99
2018-11-25T09:05:21.781Z,99.99
2018-11-25T09:06:21.755Z,99.99
2018-11-25T09:07:21.790Z,99.99
2018-11-25T09:08:21.729Z,99.99
2018-11-25T09:09:21.960Z,99.99
2018-11-25T09:10:21.710Z,99.99
2018-11-25T09:11:21.700Z,99.99
2018-11-25T09:12:21.682Z,99.99
2018-11-25T09:13:21.709Z,99.99
2018-11-25T09:14:21.685Z,99.99
2018-11-25T09:15:21.651Z,99.99
2018-11-25T09:16:21.641Z,99.99
2018-11-25T09:17:21.627Z,99.99
2018-11-25T09:18:21.616Z,99.99
2018-11-25T09:19:21.908Z,99.99
2018-11-25T09:20:21.616Z,99.99
2018-11-25T09:21:21.587Z,99.99
2018-11-25T09:22:21.583Z,99.99
2018-11-25T09:23:21.573Z,99.99
2018-11-25T09:24:21.552Z,99.99
2018-11-25T09:25:21.598Z,99.99
2018-11-25T09:26:21.538Z,99.99
2018-11-25T09:27:21.533Z,99.99
2018-11-25T09:28:21.524Z,99.99
2018-11-25T09:29:21.502Z,99.99
2018-11-25T09:30:21.497Z,99.99
2018-11-25T09:31:21.524Z,99.99
2018-11-25T09:32:23.110Z,99.99
2018-11-25T09:33:21.479Z,99.99
2018-11-25T09:34:21.443Z,99.99
2018-11-25T09:35:21.431Z,99.99
2018-11-25T09:36:21.420Z,99.99
2018-11-25T09:37:21.475Z,99.99
2018-11-25T09:38:21.403Z,99.99
2018-11-25T09:39:21.418Z,99.99
2018-11-25T09:40:21.384Z,99.99
2018-11-25T09:41:21.367Z,99.99
2018-11-25T09:42:21.356Z,99.99
2018-11-25T09:43:21.388Z,99.99
2018-11-25T09:44:21.340Z,99.99
2018-11-25T09:45:21.342Z,99.99
2018-11-25T09:46:21.321Z,99.99
2018-11-25T09:47:21.307Z,99.99
2018-11-25T09:48:21.316Z,99.99
2018-11-25T09:49:21.323Z,99.99
2018-11-25T09:50:21.274Z,99.99
2018-11-25T09:51:21.289Z,99.99
2018-11-25T09:52:21.248Z,99.99
2018-11-25T09:53:21.238Z,99.99
2018-11-25T09:54:21.226Z,99.99
2018-11-25T09:55:21.262Z,99.99
2018-11-25T09:56:21.205Z,99.99
2018-11-25T09:57:21.233Z,99.99
2018-11-25T09:58:25.425Z,99.99
2018-11-25T09:59:21.212Z,99.99
2018-11-25T10:00:21.173Z,99.99
2018-11-25T10:01:21.194Z,99.99
2018-11-25T10:02:21.141Z,99.99
2018-11-25T10:03:21.130Z,99.99
2018-11-25T10:04:21.124Z,99.99
2018-11-25T10:05:21.111Z,99.99
2018-11-25T10:06:21.093Z,99.99
2018-11-25T10:07:21.137Z,99.99
2018-11-25T10:08:21.071Z,99.99
2018-11-25T10:09:21.070Z,99.99
2018-11-25T10:10:21.057Z,99.99
2018-11-25T10:11:21.046Z,99.99
2018-11-25T10:12:21.027Z,99.99
2018-11-25T10:13:21.076Z,99.99
2018-11-25T10:14:21.005Z,99.99
2018-11-25T10:15:20.995Z,99.99
2018-11-25T10:16:21.002Z,99.99
2018-11-25T10:17:20.980Z,99.99
2018-11-25T10:18:20.962Z,99.99
2018-11-25T10:19:20.995Z,99.99
2018-11-25T10:20:20.941Z,99.99
2018-11-25T10:21:20.930Z,99.99
2018-11-25T10:22:20.926Z,99.99
2018-11-25T10:23:20.921Z,99.99
2018-11-25T10:24:20.904Z,99.99
2018-11-25T10:25:20.943Z,99.99
2018-11-25T10:26:20.878Z,99.99
2018-11-25T10:27:20.864Z,99.99
2018-11-25T10:28:20.857Z,99.99
2018-11-25T10:29:20.848Z,99.99
2018-11-25T10:30:20.834Z,99.99
2018-11-25T10:31:20.869Z,99.99
2018-11-25T10:32:20.808Z,99.99
2018-11-25T10:33:20.800Z,99.99
2018-11-25T10:34:20.801Z,99.99
2018-11-25T10:35:20.777Z,99.99
2018-11-25T10:36:20.767Z,99.99
2018-11-25T10:37:20.794Z,99.99
2018-11-25T10:38:20.787Z,99.99
2018-11-25T10:39:20.740Z,99.99
2018-11-25T10:40:20.737Z,99.99
2018-11-25T10:41:20.713Z,99.99
2018-11-25T10:42:20.700Z,99.99
2018-11-25T10:43:20.739Z,99.99
2018-11-25T10:44:20.680Z,99.99
2018-11-25T10:45:20.671Z,99.79
2018-11-25T10:46:20.668Z,99.48
2018-11-25T10:47:20.648Z,99.99
2018-11-25T10:48:20.635Z,99.99
2018-11-25T10:49:20.674Z,99.85
2018-11-25T10:50:20.621Z,99.99
2018-11-25T10:51:20.609Z,99.99
2018-11-25T10:52:20.613Z,99.99
2018-11-25T10:53:20.580Z,99.99
2018-11-25T10:54:20.584Z,99.99
2018-11-25T10:55:20.593Z,99.99
2018-11-25T10:56:20.548Z,99.95
2018-11-25T10:57:20.543Z,99.49
2018-11-25T10:58:20.544Z,99.95
2018-11-25T10:59:20.521Z,99.80
2018-11-25T11:00:20.503Z,99.39
2018-11-25T11:01:21.522Z,99.91
2018-11-25T11:02:20.485Z,99.60
2018-11-25T11:03:20.472Z,99.80
2018-11-25T11:04:20.473Z,99.08
2018-11-25T11:05:20.453Z,99.43
2018-11-25T11:06:20.437Z,99.23
2018-11-25T11:07:20.473Z,99.43
2018-11-25T11:08:20.416Z,99.43
2018-11-25T11:09:20.407Z,99.54
2018-11-25T11:10:20.403Z,99.49
2018-11-25T11:11:20.388Z,99.29
2018-11-25T11:12:20.377Z,99.02
2018-11-25T11:13:20.413Z,99.33
2018-11-25T11:14:20.353Z,99.13
2018-11-25T11:15:20.339Z,99.23
2018-11-25T11:16:20.351Z,99.13
2018-11-25T11:17:20.319Z,99.95
2018-11-25T11:18:20.310Z,99.64
2018-11-25T11:19:20.337Z,99.64
2018-11-25T11:20:20.286Z,99.54
2018-11-25T11:21:20.276Z,99.64
2018-11-25T11:22:20.295Z,99.64
2018-11-25T11:23:20.255Z,99.54
2018-11-25T11:24:20.245Z,99.64
2018-11-25T11:25:20.294Z,99.99
2018-11-25T11:26:20.222Z,99.85
2018-11-25T11:27:20.215Z,99.54
2018-11-25T11:28:20.217Z,99.99
2018-11-25T11:29:20.201Z,99.95
2018-11-25T11:30:20.178Z,99.99
2018-11-25T11:31:20.226Z,99.64
2018-11-25T11:32:20.179Z,99.99
2018-11-25T11:33:20.145Z,99.99
2018-11-25T11:34:20.134Z,99.99
2018-11-25T11:35:20.121Z,99.99
2018-11-25T11:36:20.112Z,99.91
2018-11-25T11:37:20.384Z,99.99
2018-11-25T11:38:20.092Z,99.99
2018-11-25T11:39:20.085Z,99.99
2018-11-25T11:40:20.068Z,99.99
2018-11-25T11:41:20.083Z,99.99
2018-11-25T11:42:20.052Z,99.99
2018-11-25T11:43:20.095Z,99.49
2018-11-25T11:44:20.031Z,99.80
2018-11-25T11:45:20.016Z,99.49
2018-11-25T11:46:20.011Z,99.85
2018-11-25T11:47:19.993Z,99.80
2018-11-25T11:48:19.979Z,99.60
2018-11-25T11:49:20.046Z,99.80
2018-11-25T11:50:19.965Z,99.85
2018-11-25T11:51:25.511Z,99.99
2018-11-25T11:52:20.937Z,99.85
2018-11-25T11:53:19.928Z,99.74
2018-11-25T11:54:19.914Z,99.99
2018-11-25T11:55:19.984Z,99.70
2018-11-25T11:56:19.893Z,99.95
2018-11-25T11:57:19.881Z,99.64
2018-11-25T11:58:19.873Z,99.70
2018-11-25T11:59:19.859Z,99.85
2018-11-25T12:00:19.854Z,99.99
2018-11-25T12:01:19.891Z,99.74
2018-11-25T12:02:19.847Z,99.74
2018-11-25T12:03:26.375Z,99.85
2018-11-25T12:04:20.805Z,99.74
2018-11-25T12:05:19.840Z,99.99
2018-11-25T12:06:19.792Z,99.99
2018-11-25T12:07:19.966Z,99.99
2018-11-25T12:08:19.768Z,99.99
2018-11-25T12:09:19.768Z,99.99
2018-11-25T12:10:19.740Z,99.99
2018-11-25T12:11:19.729Z,99.99
2018-11-25T12:12:19.721Z,99.95
2018-11-25T12:13:19.757Z,99.99
2018-11-25T12:14:19.700Z,99.99
2018-11-25T12:15:19.701Z,99.99
2018-11-25T12:16:19.677Z,99.99
2018-11-25T12:17:19.673Z,99.99
2018-11-25T12:18:19.655Z,99.99
2018-11-25T12:19:19.671Z,99.99
2018-11-25T12:20:21.447Z,99.99
2018-11-25T12:21:19.620Z,99.99
2018-11-25T12:22:19.630Z,99.99
2018-11-25T12:23:19.599Z,99.99
2018-11-25T12:24:19.591Z,99.99
2018-11-25T12:25:19.635Z,99.99
2018-11-25T12:26:19.576Z,99.99
2018-11-25T12:27:19.555Z,99.99
2018-11-25T12:28:19.567Z,99.99
2018-11-25T12:29:19.540Z,99.99
2018-11-25T12:30:19.523Z,99.99
2018-11-25T12:31:19.561Z,99.85
2018-11-25T12:32:19.502Z,99.99
2018-11-25T12:33:19.494Z,99.99
2018-11-25T12:34:19.493Z,99.91
2018-11-25T12:35:19.478Z,99.99
2018-11-25T12:36:19.458Z,99.99
2018-11-25T12:37:19.475Z,99.80
2018-11-25T12:38:19.464Z,99.85
2018-11-25T12:39:19.424Z,99.60
2018-11-25T12:40:19.441Z,99.64
2018-11-25T12:41:19.412Z,99.85
2018-11-25T12:42:19.391Z,99.85
2018-11-25T12:43:19.417Z,99.91
2018-11-25T12:44:19.371Z,99.70
2018-11-25T12:45:19.361Z,99.49
2018-11-25T12:46:19.357Z,99.60
2018-11-25T12:47:19.340Z,99.43
2018-11-25T12:48:19.326Z,99.08
2018-11-25T12:49:19.361Z,99.39
2018-11-25T12:50:19.305Z,99.60
2018-11-25T12:51:19.294Z,99.29
2018-11-25T12:52:19.299Z,99.39